Dodds Bridge, Indiana
Current Conditions -  °F | °C
As of 12:15 PM on Thursday 27 Nov 2014 (Local Time) from KRSV Reporting Station
Overcast Overcast  
Wind Chill: 17°   Ceiling: 2100
Heat Index: 29°   Visibility: 7mi
Dew Point: 23°   Wind: 16mph
Humidity: 77%   Direction: 320°NW
Pressure: 30.44"   Gusts: NA
Location:  39.2135°N, 87.5254°W
Report Text: KRSV 271715Z AUTO 32014KT 7SM OVC021 M02/M05 A3044 RMK AO2 T10161051
Loading
Personal Weather Stations






























Interactive Weather Map New forecast layout! Learn more

10-Day Weather Forecast

Advertisements
Track Severe Weather on mobile